createdAt,value
2019-03-18T00:00:02.021Z,85.40
2019-03-18T00:02:32.139Z,85.04
2019-03-18T00:05:00.345Z,84.85
2019-03-18T00:07:28.382Z,84.57
2019-03-18T00:09:56.247Z,84.30
2019-03-18T00:12:24.324Z,84.14
2019-03-18T00:15:01.262Z,84.07
2019-03-18T00:17:21.899Z,84.34
2019-03-18T00:19:49.864Z,84.28
2019-03-18T00:22:17.670Z,84.67
2019-03-18T00:24:45.499Z,85.23
2019-03-18T00:27:13.261Z,85.25
2019-03-18T00:29:41.027Z,85.38
2019-03-18T00:32:08.888Z,85.66
2019-03-18T00:34:36.657Z,85.96
2019-03-18T00:37:04.518Z,85.78
2019-03-18T00:39:32.384Z,86.02
2019-03-18T00:42:00.258Z,85.88
2019-03-18T00:44:28.013Z,86.11
2019-03-18T00:46:55.780Z,86.05
2019-03-18T00:49:23.537Z,85.77
2019-03-18T00:51:51.508Z,86.19
2019-03-18T00:54:19.888Z,86.12
2019-03-18T00:56:47.958Z,85.93
2019-03-18T00:59:15.723Z,85.85
2019-03-18T01:01:44.203Z,85.76
2019-03-18T01:04:11.866Z,85.23
2019-03-18T01:06:39.730Z,85.66
2019-03-18T01:09:07.596Z,86.22
2019-03-18T01:11:35.362Z,86.38
2019-03-18T01:14:03.119Z,86.56
2019-03-18T01:16:30.886Z,86.76
2019-03-18T01:18:58.650Z,86.63
2019-03-18T01:21:26.413Z,86.53
2019-03-18T01:23:54.176Z,85.83
2019-03-18T01:26:21.947Z,85.90
2019-03-18T01:28:49.881Z,85.33
2019-03-18T01:31:17.672Z,85.63
2019-03-18T01:33:45.435Z,86.18
2019-03-18T01:36:13.302Z,86.27
2019-03-18T01:38:41.177Z,86.97
2019-03-18T01:41:08.933Z,87.08
2019-03-18T01:43:36.802Z,86.61
2019-03-18T01:46:04.568Z,85.97
2019-03-18T01:48:32.530Z,86.05
2019-03-18T01:51:00.398Z,85.63
2019-03-18T01:53:28.673Z,85.67
2019-03-18T01:55:56.450Z,86.54
2019-03-18T01:58:24.197Z,87.32
2019-03-18T02:00:52.580Z,86.94
2019-03-18T02:03:20.240Z,87.54
2019-03-18T02:05:48.205Z,86.50
2019-03-18T02:08:16.076Z,85.97
2019-03-18T02:10:43.843Z,85.66
2019-03-18T02:13:11.803Z,87.28
2019-03-18T02:15:39.574Z,88.39
2019-03-18T02:18:07.329Z,87.50
2019-03-18T02:20:35.303Z,88.12
2019-03-18T02:23:03.068Z,87.49
2019-03-18T02:25:30.843Z,87.16
2019-03-18T02:27:58.598Z,86.99
2019-03-18T02:30:26.359Z,87.35
2019-03-18T02:32:54.120Z,87.11
2019-03-18T02:35:22.097Z,87.25
2019-03-18T02:37:49.969Z,87.35
2019-03-18T02:40:17.724Z,86.31
2019-03-18T02:42:45.482Z,86.93
2019-03-18T02:45:13.250Z,87.10
2019-03-18T02:47:41.027Z,86.88
2019-03-18T02:50:08.672Z,86.96
2019-03-18T02:52:37.156Z,86.45
2019-03-18T02:55:06.144Z,86.27
2019-03-18T02:57:33.813Z,86.29
2019-03-18T03:00:01.689Z,86.47
2019-03-18T03:02:30.780Z,87.03
2019-03-18T03:04:58.738Z,87.60
2019-03-18T03:07:26.508Z,87.68
2019-03-18T03:09:54.271Z,88.15
2019-03-18T03:12:22.028Z,86.67
2019-03-18T03:14:49.790Z,87.13
2019-03-18T03:17:21.419Z,87.70
2019-03-18T03:19:47.260Z,86.92
2019-03-18T03:22:15.027Z,87.27
2019-03-18T03:24:42.804Z,87.58
2019-03-18T03:27:10.557Z,87.70
2019-03-18T03:29:38.228Z,87.72
2019-03-18T03:32:05.986Z,87.20
2019-03-18T03:34:33.770Z,87.02
2019-03-18T03:37:01.714Z,86.63
2019-03-18T03:39:29.680Z,86.76
2019-03-18T03:41:57.455Z,87.27
2019-03-18T03:44:25.107Z,87.23
2019-03-18T03:46:52.866Z,87.01
2019-03-18T03:49:20.636Z,86.77
2019-03-18T03:51:48.504Z,86.49
2019-03-18T03:54:17.191Z,86.59
2019-03-18T03:56:44.738Z,86.87
2019-03-18T03:59:12.513Z,87.66
2019-03-18T04:01:41.603Z,87.90
2019-03-18T04:04:09.371Z,88.08
2019-03-18T04:06:37.336Z,87.44
2019-03-18T04:09:05.308Z,87.28
2019-03-18T04:11:33.281Z,87.67
2019-03-18T04:14:01.645Z,87.58
2019-03-18T04:16:29.616Z,87.01
2019-03-18T04:18:57.389Z,86.42
2019-03-18T04:21:25.363Z,86.25
2019-03-18T04:23:53.216Z,86.37
2019-03-18T04:26:21.289Z,86.04
2019-03-18T04:28:49.157Z,85.58
2019-03-18T04:31:17.225Z,85.06
2019-03-18T04:33:45.195Z,84.60
2019-03-18T04:36:13.265Z,83.94
2019-03-18T04:38:42.258Z,83.71
2019-03-18T04:41:10.224Z,83.15
2019-03-18T04:43:38.192Z,83.50
2019-03-18T04:46:06.669Z,83.11
2019-03-18T04:48:34.848Z,83.56
2019-03-18T04:51:02.823Z,83.29
2019-03-18T04:53:31.095Z,82.56
2019-03-18T04:55:59.057Z,81.91
2019-03-18T04:58:28.164Z,81.39
2019-03-18T05:00:56.430Z,82.13
2019-03-18T05:03:24.714Z,81.41
2019-03-18T05:05:52.674Z,80.94
2019-03-18T05:08:20.643Z,81.49
2019-03-18T05:10:48.613Z,81.08
2019-03-18T05:13:16.679Z,81.53
2019-03-18T05:15:44.752Z,80.78
2019-03-18T05:18:13.456Z,80.45
2019-03-18T05:20:41.510Z,80.28
2019-03-18T05:23:09.479Z,81.50
2019-03-18T05:25:37.562Z,82.02
2019-03-18T05:28:05.725Z,82.11
2019-03-18T05:30:33.797Z,82.07
2019-03-18T05:33:01.861Z,81.68
2019-03-18T05:35:29.933Z,81.27
2019-03-18T05:37:57.902Z,80.61
2019-03-18T05:40:25.975Z,80.60
2019-03-18T05:42:53.937Z,80.78
2019-03-18T05:45:21.916Z,80.55
2019-03-18T05:47:49.980Z,80.28
2019-03-18T05:50:17.952Z,80.59
2019-03-18T05:52:46.029Z,80.64
2019-03-18T05:55:14.397Z,80.30
2019-03-18T05:57:42.117Z,80.25
2019-03-18T06:00:11.357Z,79.61
2019-03-18T06:02:39.535Z,79.58
2019-03-18T06:05:07.303Z,79.71
2019-03-18T06:07:36.303Z,79.19
2019-03-18T06:10:07.232Z,79.27
2019-03-18T06:12:35.300Z,79.29
2019-03-18T06:15:06.463Z,79.04
2019-03-18T06:17:34.010Z,79.05
2019-03-18T06:20:03.314Z,78.66
2019-03-18T06:22:30.755Z,78.27
2019-03-18T06:24:58.725Z,78.76
2019-03-18T06:27:26.589Z,77.82
2019-03-18T06:29:54.557Z,77.64
2019-03-18T06:32:22.531Z,77.69
2019-03-18T06:34:50.392Z,77.39
2019-03-18T06:37:18.572Z,77.05
2019-03-18T06:39:46.638Z,77.00
2019-03-18T06:42:14.613Z,77.13
2019-03-18T06:44:42.576Z,77.13
2019-03-18T06:47:10.598Z,75.62
2019-03-18T06:49:38.612Z,75.75
2019-03-18T06:52:06.687Z,74.73
2019-03-18T06:54:34.962Z,74.25
2019-03-18T06:57:03.853Z,74.01
2019-03-18T06:59:32.131Z,72.94
2019-03-18T07:02:00.198Z,73.39
2019-03-18T07:04:27.758Z,73.24
2019-03-18T07:06:55.736Z,72.60
2019-03-18T07:09:23.692Z,73.00
2019-03-18T07:11:51.660Z,73.10
2019-03-18T07:14:19.631Z,73.27
2019-03-18T07:16:47.599Z,73.01
2019-03-18T07:19:15.568Z,72.30
2019-03-18T07:21:43.558Z,71.64
2019-03-18T07:24:11.506Z,71.11
2019-03-18T07:26:39.577Z,71.05
2019-03-18T07:29:07.339Z,70.36
2019-03-18T07:31:35.411Z,68.87
2019-03-18T07:34:03.390Z,68.75
2019-03-18T07:36:31.348Z,67.94
2019-03-18T07:38:59.313Z,68.23
2019-03-18T07:41:27.210Z,69.05
2019-03-18T07:43:55.252Z,69.30
2019-03-18T07:46:23.223Z,68.33
2019-03-18T07:48:51.188Z,67.26
2019-03-18T07:51:19.059Z,66.45
2019-03-18T07:53:47.850Z,65.88
2019-03-18T07:56:15.404Z,66.92
2019-03-18T07:58:43.478Z,65.51
2019-03-18T08:01:11.867Z,65.19
2019-03-18T08:03:41.566Z,65.52
2019-03-18T08:06:09.528Z,65.44
2019-03-18T08:08:37.612Z,65.87
2019-03-18T08:11:05.568Z,65.67
2019-03-18T08:13:33.534Z,64.37
2019-03-18T08:16:01.403Z,63.45
2019-03-18T08:18:29.779Z,63.68
2019-03-18T08:20:57.753Z,63.18
2019-03-18T08:23:25.820Z,64.06
2019-03-18T08:25:53.901Z,63.76
2019-03-18T08:28:22.000Z,63.96
2019-03-18T08:30:49.931Z,62.20
2019-03-18T08:33:17.903Z,62.11
2019-03-18T08:35:46.808Z,62.82
2019-03-18T08:38:14.968Z,62.51
2019-03-18T08:40:42.729Z,63.25
2019-03-18T08:43:10.692Z,62.63
2019-03-18T08:45:38.669Z,62.57
2019-03-18T08:48:06.637Z,63.34
2019-03-18T08:50:34.811Z,63.78
2019-03-18T08:53:03.189Z,64.15
2019-03-18T08:55:31.052Z,62.99
2019-03-18T08:57:59.228Z,62.86
2019-03-18T09:00:27.299Z,61.17
2019-03-18T09:02:56.455Z,61.17
2019-03-18T09:05:24.255Z,61.50
2019-03-18T09:07:52.244Z,60.42
2019-03-18T09:10:20.196Z,60.61
2019-03-18T09:12:48.160Z,60.44
2019-03-18T09:15:16.030Z,60.47
2019-03-18T09:17:45.019Z,60.15
2019-03-18T09:20:14.323Z,60.28
2019-03-18T09:22:42.187Z,60.02
2019-03-18T09:25:10.672Z,60.29
2019-03-18T09:27:39.248Z,60.71
2019-03-18T09:30:16.227Z,60.22
2019-03-18T09:32:43.786Z,59.60
2019-03-18T09:35:11.865Z,58.77
2019-03-18T09:37:40.032Z,58.64
2019-03-18T09:40:11.072Z,59.27
2019-03-18T09:42:38.947Z,58.67
2019-03-18T09:45:09.872Z,57.51
2019-03-18T09:47:37.640Z,57.19
2019-03-18T09:50:07.148Z,57.32
2019-03-18T09:52:34.808Z,56.23
2019-03-18T09:55:05.182Z,55.18
2019-03-18T09:57:33.102Z,55.49
2019-03-18T10:00:00.974Z,53.39
2019-03-18T10:02:29.138Z,54.29
2019-03-18T10:04:57.003Z,52.97
2019-03-18T10:07:25.072Z,51.51
2019-03-18T10:09:53.059Z,52.15
2019-03-18T10:12:21.111Z,50.95
2019-03-18T10:14:49.084Z,49.63
2019-03-18T10:17:17.050Z,50.09
2019-03-18T10:19:45.021Z,50.20
2019-03-18T10:22:12.984Z,51.04
2019-03-18T10:24:40.955Z,51.27
2019-03-18T10:27:09.006Z,50.70
2019-03-18T10:29:36.998Z,49.01
2019-03-18T10:32:05.082Z,49.78
2019-03-18T10:34:33.036Z,50.24
2019-03-18T10:37:01.111Z,50.40
2019-03-18T10:39:29.278Z,51.17
2019-03-18T10:41:57.248Z,50.44
2019-03-18T10:44:25.217Z,51.99
2019-03-18T10:46:53.189Z,52.01
2019-03-18T10:49:21.260Z,51.55
2019-03-18T10:51:49.225Z,51.93
2019-03-18T10:54:29.979Z,51.55
2019-03-18T10:56:48.035Z,51.00
2019-03-18T10:59:16.203Z,51.00
2019-03-18T11:01:44.475Z,50.93
2019-03-18T11:04:12.244Z,50.98
2019-03-18T11:06:40.218Z,50.88
2019-03-18T11:09:08.282Z,51.51
2019-03-18T11:11:36.255Z,51.69
2019-03-18T11:14:04.319Z,51.66
2019-03-18T11:16:32.290Z,50.85
2019-03-18T11:19:00.263Z,51.31
2019-03-18T11:21:28.231Z,51.25
2019-03-18T11:23:56.192Z,51.10
2019-03-18T11:26:24.983Z,50.97
2019-03-18T11:28:52.748Z,51.27
2019-03-18T11:31:20.716Z,51.25
2019-03-18T11:33:48.788Z,50.84
2019-03-18T11:36:16.857Z,50.39
2019-03-18T11:38:44.744Z,49.73
2019-03-18T11:41:12.694Z,50.44
2019-03-18T11:43:40.663Z,49.97
2019-03-18T11:46:10.365Z,49.83
2019-03-18T11:48:38.953Z,48.82
2019-03-18T11:51:07.023Z,48.86
2019-03-18T11:53:35.300Z,48.51
2019-03-18T11:56:03.679Z,48.66
2019-03-18T11:58:31.575Z,48.30
2019-03-18T12:01:00.127Z,48.09
2019-03-18T12:03:28.200Z,48.42
2019-03-18T12:05:56.265Z,48.23
2019-03-18T12:08:24.132Z,47.99
2019-03-18T12:10:52.005Z,47.37
2019-03-18T12:13:20.993Z,47.23
2019-03-18T12:15:48.958Z,47.41
2019-03-18T12:18:17.031Z,47.89
2019-03-18T12:20:44.995Z,47.32
2019-03-18T12:23:13.171Z,46.64
2019-03-18T12:25:41.142Z,46.38
2019-03-18T12:28:09.213Z,46.48
2019-03-18T12:30:37.998Z,46.41
2019-03-18T12:33:06.055Z,47.00
2019-03-18T12:35:34.144Z,46.95
2019-03-18T12:38:02.222Z,46.20
2019-03-18T12:40:29.978Z,46.42
2019-03-18T12:42:58.664Z,46.86
2019-03-18T12:45:26.632Z,46.76
2019-03-18T12:47:55.420Z,46.94
2019-03-18T12:50:55.063Z,47.32
2019-03-18T12:52:55.496Z,46.73
2019-03-18T12:55:24.353Z,46.96
2019-03-18T12:57:52.309Z,45.69
2019-03-18T13:00:29.397Z,45.48
2019-03-18T13:02:57.384Z,45.03
2019-03-18T13:05:26.871Z,46.25
2019-03-18T13:07:54.833Z,46.19
2019-03-18T13:10:23.524Z,46.86
2019-03-18T13:12:51.484Z,46.70
2019-03-18T13:15:19.676Z,46.74
2019-03-18T13:17:47.529Z,46.86
2019-03-18T13:20:20.616Z,46.80
2019-03-18T13:22:48.072Z,47.75
2019-03-18T13:25:16.144Z,48.40
2019-03-18T13:27:44.212Z,48.79
2019-03-18T13:30:16.175Z,47.96
2019-03-18T13:32:44.260Z,48.32
2019-03-18T13:35:12.726Z,47.34
2019-03-18T13:37:42.029Z,46.83
2019-03-18T13:40:14.603Z,46.31
2019-03-18T13:42:42.104Z,45.27
2019-03-18T13:45:20.069Z,46.70
2019-03-18T13:47:47.931Z,47.47
2019-03-18T13:50:19.695Z,47.39
2019-03-18T13:52:47.500Z,46.97
2019-03-18T13:55:15.806Z,47.75
2019-03-18T13:57:43.698Z,47.26
2019-03-18T14:00:19.343Z,45.85
2019-03-18T14:02:47.621Z,45.58
2019-03-18T14:05:16.612Z,46.15
2019-03-18T14:07:44.582Z,46.62
2019-03-18T14:10:15.316Z,45.81
2019-03-18T14:12:43.397Z,46.25
2019-03-18T14:15:13.363Z,45.65
2019-03-18T14:17:40.859Z,45.55
2019-03-18T14:20:11.383Z,45.69
2019-03-18T14:22:39.046Z,45.66
2019-03-18T14:25:08.450Z,45.62
2019-03-18T14:27:36.422Z,45.78
2019-03-18T14:30:10.953Z,45.70
2019-03-18T14:32:38.917Z,44.96
2019-03-18T14:35:07.802Z,45.38
2019-03-18T14:37:35.569Z,45.04
2019-03-18T14:40:10.497Z,45.09
2019-03-18T14:42:38.586Z,45.24
2019-03-18T14:45:19.236Z,44.79
2019-03-18T14:47:47.331Z,45.07
2019-03-18T14:50:16.192Z,44.66
2019-03-18T14:52:44.064Z,44.72
2019-03-18T14:55:14.748Z,44.59
2019-03-18T14:57:42.262Z,44.83
2019-03-18T15:00:17.040Z,44.74
2019-03-18T15:02:45.350Z,44.74
2019-03-18T15:05:14.251Z,44.77
2019-03-18T15:07:41.907Z,44.89
2019-03-18T15:10:11.819Z,45.04
2019-03-18T15:12:40.314Z,45.14
2019-03-18T15:15:12.059Z,45.66
2019-03-18T15:17:40.028Z,45.35
2019-03-18T15:20:12.372Z,44.96
2019-03-18T15:22:39.959Z,45.32
2019-03-18T15:25:13.724Z,45.29
2019-03-18T15:27:41.623Z,45.23
2019-03-18T15:30:12.364Z,45.44
2019-03-18T15:32:39.941Z,45.05
2019-03-18T15:35:09.425Z,45.50
2019-03-18T15:37:37.596Z,45.15
2019-03-18T15:40:11.913Z,45.34
2019-03-18T15:42:39.685Z,45.88
2019-03-18T15:45:10.306Z,45.95
2019-03-18T15:47:38.284Z,46.02
2019-03-18T15:50:13.038Z,46.60
2019-03-18T15:52:41.385Z,46.66
2019-03-18T15:55:09.562Z,47.55
2019-03-18T15:57:37.216Z,46.91
2019-03-18T16:00:11.128Z,47.48
2019-03-18T16:02:39.097Z,47.81
2019-03-18T16:05:07.270Z,47.92
2019-03-18T16:07:35.232Z,48.34
2019-03-18T16:10:06.288Z,48.36
2019-03-18T16:12:33.936Z,49.16
2019-03-18T16:15:01.906Z,49.16
2019-03-18T16:17:30.077Z,49.42
2019-03-18T16:19:58.057Z,49.57
2019-03-18T16:22:26.015Z,49.26
2019-03-18T16:24:54.009Z,49.59
2019-03-18T16:27:22.066Z,49.75
2019-03-18T16:29:50.022Z,49.87
2019-03-18T16:32:17.991Z,49.74
2019-03-18T16:34:45.963Z,49.98
2019-03-18T16:37:14.140Z,49.45
2019-03-18T16:39:42.311Z,49.77
2019-03-18T16:42:09.970Z,50.13
2019-03-18T16:44:38.149Z,50.35
2019-03-18T16:47:06.217Z,50.50
2019-03-18T16:49:34.078Z,50.81
2019-03-18T16:52:02.046Z,50.42
2019-03-18T16:54:30.731Z,51.23
2019-03-18T16:56:58.597Z,51.06
2019-03-18T16:59:26.565Z,51.45
2019-03-18T17:01:54.944Z,51.96
2019-03-18T17:04:23.028Z,52.08
2019-03-18T17:06:51.191Z,52.44
2019-03-18T17:09:19.259Z,52.63
2019-03-18T17:11:47.230Z,53.08
2019-03-18T17:14:15.103Z,53.18
2019-03-18T17:16:43.180Z,53.64
2019-03-18T17:19:11.255Z,54.18
2019-03-18T17:21:39.211Z,54.23
2019-03-18T17:24:07.280Z,54.36
2019-03-18T17:26:35.247Z,54.74
2019-03-18T17:29:03.932Z,54.81
2019-03-18T17:31:33.642Z,55.25
2019-03-18T17:34:01.712Z,54.88
2019-03-18T17:36:30.600Z,55.17
2019-03-18T17:38:58.576Z,55.63
2019-03-18T17:41:26.538Z,55.85
2019-03-18T17:43:54.413Z,55.68
2019-03-18T17:46:22.374Z,55.87
2019-03-18T17:48:50.344Z,56.22
2019-03-18T17:51:18.308Z,56.21
2019-03-18T17:53:46.895Z,56.49
2019-03-18T17:56:15.079Z,56.58
2019-03-18T17:58:43.033Z,56.88
2019-03-18T18:01:11.920Z,56.72
2019-03-18T18:03:39.696Z,57.07
2019-03-18T18:06:07.756Z,56.98
2019-03-18T18:08:35.837Z,57.11
2019-03-18T18:11:04.314Z,57.13
2019-03-18T18:13:32.286Z,57.13
2019-03-18T18:16:00.449Z,57.42
2019-03-18T18:18:28.735Z,57.98
2019-03-18T18:20:56.700Z,57.99
2019-03-18T18:23:24.982Z,58.44
2019-03-18T18:25:53.965Z,59.46
2019-03-18T18:28:22.141Z,59.46
2019-03-18T18:30:50.108Z,59.66
2019-03-18T18:33:18.487Z,60.03
2019-03-18T18:35:46.762Z,60.06
2019-03-18T18:38:15.139Z,60.62
2019-03-18T18:40:43.108Z,60.53
2019-03-18T18:43:11.106Z,60.51
2019-03-18T18:45:39.251Z,60.73
2019-03-18T18:48:07.329Z,60.57
2019-03-18T18:50:35.394Z,60.70
2019-03-18T18:53:03.977Z,61.07
2019-03-18T18:55:31.737Z,61.33
2019-03-18T18:58:01.558Z,61.67
2019-03-18T19:00:29.211Z,62.11
2019-03-18T19:02:57.702Z,62.40
2019-03-18T19:05:29.552Z,62.69
2019-03-18T19:07:57.864Z,63.05
2019-03-18T19:10:26.109Z,63.20
2019-03-18T19:12:54.171Z,63.68
2019-03-18T19:15:30.642Z,63.88
2019-03-18T19:17:58.409Z,64.72
2019-03-18T19:20:26.482Z,64.92
2019-03-18T19:22:54.545Z,65.03
2019-03-18T19:25:22.520Z,65.66
2019-03-18T19:27:50.493Z,66.12
2019-03-18T19:30:19.686Z,66.16
2019-03-18T19:32:47.388Z,66.39
2019-03-18T19:35:16.029Z,66.83
2019-03-18T19:37:44.696Z,66.78
2019-03-18T19:40:19.963Z,66.62
2019-03-18T19:42:47.916Z,66.94
2019-03-18T19:45:16.091Z,66.80
2019-03-18T19:47:44.374Z,67.06
2019-03-18T19:50:18.902Z,67.05
2019-03-18T19:52:46.652Z,67.33
2019-03-18T19:55:15.042Z,67.28
2019-03-18T19:57:43.005Z,67.63
2019-03-18T20:00:18.001Z,68.00
2019-03-18T20:02:46.419Z,68.16
2019-03-18T20:05:15.277Z,68.30
2019-03-18T20:07:44.001Z,68.96
2019-03-18T20:10:14.313Z,68.63
2019-03-18T20:12:41.867Z,68.66
2019-03-18T20:15:14.054Z,68.34
2019-03-18T20:17:41.544Z,68.31
2019-03-18T20:20:13.965Z,68.54
2019-03-18T20:22:41.944Z,68.50
2019-03-18T20:25:11.143Z,68.15
2019-03-18T20:27:38.796Z,68.06
2019-03-18T20:30:20.693Z,68.52
2019-03-18T20:32:48.657Z,68.53
2019-03-18T20:35:20.927Z,68.48
2019-03-18T20:37:51.368Z,68.64
2019-03-18T20:40:18.712Z,68.69
2019-03-18T20:42:46.573Z,68.90
2019-03-18T20:45:17.003Z,68.93
2019-03-18T20:47:44.558Z,69.01
2019-03-18T20:50:17.234Z,68.72
2019-03-18T20:52:44.797Z,68.74
2019-03-18T20:55:14.605Z,68.83
2019-03-18T20:57:42.579Z,68.71
2019-03-18T21:00:16.587Z,68.73
2019-03-18T21:02:44.863Z,68.65
2019-03-18T21:05:12.625Z,68.81
2019-03-18T21:07:40.604Z,69.03
2019-03-18T21:10:10.718Z,68.87
2019-03-18T21:12:38.170Z,69.14
2019-03-18T21:15:08.288Z,68.83
2019-03-18T21:17:36.158Z,68.50
2019-03-18T21:20:10.474Z,67.98
2019-03-18T21:22:38.337Z,67.88
2019-03-18T21:25:07.232Z,67.79
2019-03-18T21:27:35.304Z,68.21
2019-03-18T21:30:11.769Z,68.09
2019-03-18T21:32:39.839Z,68.20
2019-03-18T21:35:08.728Z,68.58
2019-03-18T21:37:36.392Z,68.77
2019-03-18T21:40:07.948Z,68.68
2019-03-18T21:42:35.702Z,68.85
2019-03-18T21:45:06.747Z,68.59
2019-03-18T21:47:34.720Z,68.40
2019-03-18T21:50:05.144Z,68.58
2019-03-18T21:52:32.802Z,68.88
2019-03-18T21:55:01.181Z,68.72
2019-03-18T21:57:29.146Z,68.79
2019-03-18T21:59:57.613Z,68.74
2019-03-18T22:02:26.115Z,68.67
2019-03-18T22:04:54.180Z,69.01
2019-03-18T22:07:22.255Z,69.17
2019-03-18T22:09:50.223Z,69.75
2019-03-18T22:12:18.191Z,69.73
2019-03-18T22:14:46.365Z,69.47
2019-03-18T22:17:14.335Z,69.85
2019-03-18T22:19:43.022Z,69.71
2019-03-18T22:22:10.986Z,69.86
2019-03-18T22:24:45.383Z,69.63
2019-03-18T22:27:08.764Z,70.31
2019-03-18T22:29:36.631Z,69.97
2019-03-18T22:32:04.605Z,70.25
2019-03-18T22:34:32.466Z,70.42
2019-03-18T22:37:00.539Z,70.41
2019-03-18T22:39:28.607Z,70.42
2019-03-18T22:41:56.577Z,70.82
2019-03-18T22:44:24.644Z,70.53
2019-03-18T22:46:52.819Z,70.43
2019-03-18T22:49:20.894Z,70.97
2019-03-18T22:51:48.961Z,70.95
2019-03-18T22:54:17.448Z,71.21
2019-03-18T22:56:45.310Z,71.15
2019-03-18T22:59:13.277Z,71.16
2019-03-18T23:01:42.065Z,71.43
2019-03-18T23:04:10.141Z,71.92
2019-03-18T23:06:38.104Z,71.88
2019-03-18T23:09:06.075Z,71.82
2019-03-18T23:11:34.040Z,72.28
2019-03-18T23:14:02.016Z,72.48
2019-03-18T23:16:29.980Z,72.32
2019-03-18T23:18:57.847Z,72.67
2019-03-18T23:21:25.603Z,72.37
2019-03-18T23:23:53.478Z,72.91
2019-03-18T23:26:21.444Z,72.65
2019-03-18T23:28:49.310Z,72.90
2019-03-18T23:31:17.178Z,72.56
2019-03-18T23:33:45.143Z,72.75
2019-03-18T23:36:13.216Z,72.85
2019-03-18T23:38:41.182Z,72.90
2019-03-18T23:41:09.052Z,73.09
2019-03-18T23:43:36.815Z,73.47
2019-03-18T23:46:04.579Z,73.55
2019-03-18T23:48:33.365Z,73.65
2019-03-18T23:51:01.437Z,74.37
2019-03-18T23:53:30.118Z,74.09
2019-03-18T23:55:58.190Z,74.04
2019-03-18T23:58:26.064Z,74.19
